sensor_id;sensor_type;location;lat;lon;timestamp;P1;durP1;ratioP1;P2;durP2;ratioP2
29984;SDS011;17387;42.690;23.328;2024-03-29T00:00:33;6.20;;;1.70;;
29984;SDS011;17387;42.690;23.328;2024-03-29T00:02:59;4.13;;;1.33;;
29984;SDS011;17387;42.690;23.328;2024-03-29T00:05:24;2.97;;;1.30;;
29984;SDS011;17387;42.690;23.328;2024-03-29T00:07:50;3.58;;;1.25;;
29984;SDS011;17387;42.690;23.328;2024-03-29T00:10:15;4.40;;;1.85;;
29984;SDS011;17387;42.690;23.328;2024-03-29T00:12:40;4.28;;;1.60;;
29984;SDS011;17387;42.690;23.328;2024-03-29T00:15:05;2.63;;;1.40;;
29984;SDS011;17387;42.690;23.328;2024-03-29T00:17:32;5.00;;;1.30;;
29984;SDS011;17387;42.690;23.328;2024-03-29T00:19:57;2.85;;;1.25;;
29984;SDS011;17387;42.690;23.328;2024-03-29T00:22:23;3.97;;;1.40;;
29984;SDS011;17387;42.690;23.328;2024-03-29T00:24:48;6.18;;;1.50;;
29984;SDS011;17387;42.690;23.328;2024-03-29T00:27:13;3.67;;;1.17;;
29984;SDS011;17387;42.690;23.328;2024-03-29T00:29:38;4.18;;;1.38;;
29984;SDS011;17387;42.690;23.328;2024-03-29T00:32:04;4.37;;;1.63;;
29984;SDS011;17387;42.690;23.328;2024-03-29T00:34:29;5.18;;;1.60;;
29984;SDS011;17387;42.690;23.328;2024-03-29T00:36:54;3.83;;;1.33;;
29984;SDS011;17387;42.690;23.328;2024-03-29T00:39:20;4.43;;;1.20;;
29984;SDS011;17387;42.690;23.328;2024-03-29T00:41:45;3.10;;;1.08;;
29984;SDS011;17387;42.690;23.328;2024-03-29T00:44:10;3.97;;;1.08;;
29984;SDS011;17387;42.690;23.328;2024-03-29T00:46:35;5.35;;;1.25;;
29984;SDS011;17387;42.690;23.328;2024-03-29T00:49:01;4.13;;;1.17;;
29984;SDS011;17387;42.690;23.328;2024-03-29T00:51:26;3.27;;;1.30;;
29984;SDS011;17387;42.690;23.328;2024-03-29T00:53:51;3.70;;;1.37;;
29984;SDS011;17387;42.690;23.328;2024-03-29T00:56:17;4.43;;;1.40;;
29984;SDS011;17387;42.690;23.328;2024-03-29T00:58:42;3.38;;;1.00;;
29984;SDS011;17387;42.690;23.328;2024-03-29T01:01:07;2.87;;;1.17;;
29984;SDS011;17387;42.690;23.328;2024-03-29T01:03:32;4.15;;;1.27;;
29984;SDS011;17387;42.690;23.328;2024-03-29T01:05:58;4.13;;;1.08;;
29984;SDS011;17387;42.690;23.328;2024-03-29T01:08:23;3.13;;;1.30;;
29984;SDS011;17387;42.690;23.328;2024-03-29T01:10:48;3.60;;;1.20;;
29984;SDS011;17387;42.690;23.328;2024-03-29T01:13:14;3.45;;;1.10;;
29984;SDS011;17387;42.690;23.328;2024-03-29T01:15:39;3.03;;;1.15;;
29984;SDS011;17387;42.690;23.328;2024-03-29T01:18:04;2.87;;;1.30;;
29984;SDS011;17387;42.690;23.328;2024-03-29T01:20:29;2.85;;;1.10;;
29984;SDS011;17387;42.690;23.328;2024-03-29T01:22:55;2.90;;;1.08;;
29984;SDS011;17387;42.690;23.328;2024-03-29T01:25:20;2.92;;;1.17;;
29984;SDS011;17387;42.690;23.328;2024-03-29T01:27:46;3.17;;;1.00;;
29984;SDS011;17387;42.690;23.328;2024-03-29T01:30:11;2.58;;;1.05;;
29984;SDS011;17387;42.690;23.328;2024-03-29T01:32:37;3.13;;;1.10;;
29984;SDS011;17387;42.690;23.328;2024-03-29T01:35:03;3.45;;;1.10;;
29984;SDS011;17387;42.690;23.328;2024-03-29T01:37:28;6.15;;;1.30;;
29984;SDS011;17387;42.690;23.328;2024-03-29T01:39:55;1.60;;;1.08;;
29984;SDS011;17387;42.690;23.328;2024-03-29T01:42:23;2.55;;;0.98;;
29984;SDS011;17387;42.690;23.328;2024-03-29T01:44:48;4.00;;;1.20;;
29984;SDS011;17387;42.690;23.328;2024-03-29T01:47:13;3.00;;;1.20;;
29984;SDS011;17387;42.690;23.328;2024-03-29T01:49:39;2.63;;;1.23;;
29984;SDS011;17387;42.690;23.328;2024-03-29T01:52:04;4.68;;;1.30;;
29984;SDS011;17387;42.690;23.328;2024-03-29T01:54:30;5.25;;;1.20;;
29984;SDS011;17387;42.690;23.328;2024-03-29T01:56:56;6.18;;;1.50;;
29984;SDS011;17387;42.690;23.328;2024-03-29T01:59:21;4.30;;;1.33;;
29984;SDS011;17387;42.690;23.328;2024-03-29T02:01:47;4.25;;;1.30;;
29984;SDS011;17387;42.690;23.328;2024-03-29T02:04:13;3.30;;;1.40;;
29984;SDS011;17387;42.690;23.328;2024-03-29T02:06:39;3.38;;;1.38;;
29984;SDS011;17387;42.690;23.328;2024-03-29T02:09:07;5.15;;;1.23;;
29984;SDS011;17387;42.690;23.328;2024-03-29T02:11:33;4.78;;;1.17;;
29984;SDS011;17387;42.690;23.328;2024-03-29T02:13:59;6.47;;;1.40;;
29984;SDS011;17387;42.690;23.328;2024-03-29T02:16:24;2.92;;;1.33;;
29984;SDS011;17387;42.690;23.328;2024-03-29T02:18:49;6.40;;;1.50;;
29984;SDS011;17387;42.690;23.328;2024-03-29T02:21:14;3.47;;;1.25;;
29984;SDS011;17387;42.690;23.328;2024-03-29T02:23:40;3.53;;;1.33;;
29984;SDS011;17387;42.690;23.328;2024-03-29T02:26:06;5.30;;;1.38;;
29984;SDS011;17387;42.690;23.328;2024-03-29T02:28:32;5.22;;;1.40;;
29984;SDS011;17387;42.690;23.328;2024-03-29T02:30:57;3.63;;;1.33;;
29984;SDS011;17387;42.690;23.328;2024-03-29T02:33:24;3.28;;;1.13;;
29984;SDS011;17387;42.690;23.328;2024-03-29T02:35:50;7.38;;;1.55;;
29984;SDS011;17387;42.690;23.328;2024-03-29T02:38:15;5.15;;;1.42;;
29984;SDS011;17387;42.690;23.328;2024-03-29T02:40:40;9.40;;;1.48;;
29984;SDS011;17387;42.690;23.328;2024-03-29T02:43:05;3.90;;;1.20;;
29984;SDS011;17387;42.690;23.328;2024-03-29T02:45:31;4.35;;;1.23;;
29984;SDS011;17387;42.690;23.328;2024-03-29T02:47:56;2.78;;;1.20;;
29984;SDS011;17387;42.690;23.328;2024-03-29T02:50:21;3.22;;;1.10;;
29984;SDS011;17387;42.690;23.328;2024-03-29T02:52:46;4.70;;;1.20;;
29984;SDS011;17387;42.690;23.328;2024-03-29T02:55:12;4.88;;;0.93;;
29984;SDS011;17387;42.690;23.328;2024-03-29T02:57:37;6.57;;;1.10;;
29984;SDS011;17387;42.690;23.328;2024-03-29T03:00:04;3.10;;;1.00;;
29984;SDS011;17387;42.690;23.328;2024-03-29T03:02:29;4.72;;;1.40;;
29984;SDS011;17387;42.690;23.328;2024-03-29T03:04:54;3.75;;;1.20;;
29984;SDS011;17387;42.690;23.328;2024-03-29T03:07:19;3.77;;;1.40;;
29984;SDS011;17387;42.690;23.328;2024-03-29T03:10:03;3.05;;;1.33;;
29984;SDS011;17387;42.690;23.328;2024-03-29T03:12:47;4.93;;;1.50;;
29984;SDS011;17387;42.690;23.328;2024-03-29T03:15:12;6.35;;;1.58;;
29984;SDS011;17387;42.690;23.328;2024-03-29T03:17:38;3.78;;;1.52;;
29984;SDS011;17387;42.690;23.328;2024-03-29T03:20:03;7.20;;;1.60;;
29984;SDS011;17387;42.690;23.328;2024-03-29T03:22:51;3.75;;;1.55;;
29984;SDS011;17387;42.690;23.328;2024-03-29T03:25:16;5.93;;;1.80;;
29984;SDS011;17387;42.690;23.328;2024-03-29T03:27:41;8.60;;;1.93;;
29984;SDS011;17387;42.690;23.328;2024-03-29T03:30:06;4.17;;;1.70;;
29984;SDS011;17387;42.690;23.328;2024-03-29T03:32:32;7.18;;;1.67;;
29984;SDS011;17387;42.690;23.328;2024-03-29T03:34:57;4.50;;;1.87;;
29984;SDS011;17387;42.690;23.328;2024-03-29T03:37:22;9.10;;;2.00;;
29984;SDS011;17387;42.690;23.328;2024-03-29T03:39:47;12.10;;;1.70;;
29984;SDS011;17387;42.690;23.328;2024-03-29T03:42:13;8.77;;;2.03;;
29984;SDS011;17387;42.690;23.328;2024-03-29T03:44:38;7.05;;;1.90;;
29984;SDS011;17387;42.690;23.328;2024-03-29T03:47:03;6.72;;;2.15;;
29984;SDS011;17387;42.690;23.328;2024-03-29T03:49:32;7.43;;;2.17;;
29984;SDS011;17387;42.690;23.328;2024-03-29T03:51:57;6.88;;;2.17;;
29984;SDS011;17387;42.690;23.328;2024-03-29T03:54:22;5.53;;;2.42;;
29984;SDS011;17387;42.690;23.328;2024-03-29T03:56:48;5.18;;;2.20;;
29984;SDS011;17387;42.690;23.328;2024-03-29T03:59:14;6.65;;;2.35;;
29984;SDS011;17387;42.690;23.328;2024-03-29T04:01:39;5.18;;;1.90;;
29984;SDS011;17387;42.690;23.328;2024-03-29T04:04:04;5.77;;;2.00;;
29984;SDS011;17387;42.690;23.328;2024-03-29T04:06:30;5.15;;;2.17;;
29984;SDS011;17387;42.690;23.328;2024-03-29T04:08:55;4.63;;;1.87;;
29984;SDS011;17387;42.690;23.328;2024-03-29T04:11:20;7.97;;;2.40;;
29984;SDS011;17387;42.690;23.328;2024-03-29T04:13:45;6.87;;;2.00;;
29984;SDS011;17387;42.690;23.328;2024-03-29T04:16:11;9.57;;;1.90;;
29984;SDS011;17387;42.690;23.328;2024-03-29T04:18:36;6.60;;;1.77;;
29984;SDS011;17387;42.690;23.328;2024-03-29T04:21:01;8.13;;;2.05;;
29984;SDS011;17387;42.690;23.328;2024-03-29T04:23:27;5.57;;;1.80;;
29984;SDS011;17387;42.690;23.328;2024-03-29T04:25:56;7.45;;;2.10;;
29984;SDS011;17387;42.690;23.328;2024-03-29T04:28:22;7.30;;;2.78;;
29984;SDS011;17387;42.690;23.328;2024-03-29T04:30:57;6.55;;;2.25;;
29984;SDS011;17387;42.690;23.328;2024-03-29T04:33:22;8.65;;;2.33;;
29984;SDS011;17387;42.690;23.328;2024-03-29T04:35:56;10.15;;;2.10;;
29984;SDS011;17387;42.690;23.328;2024-03-29T04:38:21;6.32;;;2.47;;
29984;SDS011;17387;42.690;23.328;2024-03-29T04:40:47;6.00;;;2.47;;
29984;SDS011;17387;42.690;23.328;2024-03-29T04:43:13;6.70;;;2.15;;
29984;SDS011;17387;42.690;23.328;2024-03-29T04:45:38;9.25;;;2.30;;
29984;SDS011;17387;42.690;23.328;2024-03-29T04:48:03;8.13;;;2.30;;
29984;SDS011;17387;42.690;23.328;2024-03-29T04:50:29;9.07;;;2.78;;
29984;SDS011;17387;42.690;23.328;2024-03-29T04:52:54;12.07;;;3.28;;
29984;SDS011;17387;42.690;23.328;2024-03-29T04:55:19;10.80;;;3.42;;
29984;SDS011;17387;42.690;23.328;2024-03-29T04:57:44;10.90;;;3.45;;
29984;SDS011;17387;42.690;23.328;2024-03-29T05:00:10;10.13;;;3.45;;
29984;SDS011;17387;42.690;23.328;2024-03-29T05:02:35;10.43;;;3.40;;
29984;SDS011;17387;42.690;23.328;2024-03-29T05:05:01;9.00;;;3.05;;
29984;SDS011;17387;42.690;23.328;2024-03-29T05:07:26;12.60;;;3.20;;
29984;SDS011;17387;42.690;23.328;2024-03-29T05:09:51;9.68;;;3.05;;
29984;SDS011;17387;42.690;23.328;2024-03-29T05:12:17;11.43;;;2.88;;
29984;SDS011;17387;42.690;23.328;2024-03-29T05:14:42;13.18;;;2.70;;
29984;SDS011;17387;42.690;23.328;2024-03-29T05:17:07;7.32;;;3.00;;
29984;SDS011;17387;42.690;23.328;2024-03-29T05:19:33;12.48;;;2.90;;
29984;SDS011;17387;42.690;23.328;2024-03-29T05:21:58;10.98;;;3.20;;
29984;SDS011;17387;42.690;23.328;2024-03-29T05:24:23;10.95;;;3.35;;
29984;SDS011;17387;42.690;23.328;2024-03-29T05:26:49;11.70;;;3.30;;
29984;SDS011;17387;42.690;23.328;2024-03-29T05:29:14;8.48;;;3.22;;
29984;SDS011;17387;42.690;23.328;2024-03-29T05:31:39;10.95;;;3.50;;
29984;SDS011;17387;42.690;23.328;2024-03-29T05:34:04;9.82;;;3.08;;
29984;SDS011;17387;42.690;23.328;2024-03-29T05:36:30;9.18;;;3.25;;
29984;SDS011;17387;42.690;23.328;2024-03-29T05:38:55;10.25;;;3.55;;
29984;SDS011;17387;42.690;23.328;2024-03-29T05:41:21;10.90;;;3.47;;
29984;SDS011;17387;42.690;23.328;2024-03-29T05:43:46;9.95;;;3.20;;
29984;SDS011;17387;42.690;23.328;2024-03-29T05:46:11;10.07;;;2.80;;
29984;SDS011;17387;42.690;23.328;2024-03-29T05:48:36;9.70;;;2.80;;
29984;SDS011;17387;42.690;23.328;2024-03-29T05:51:04;11.88;;;3.15;;
29984;SDS011;17387;42.690;23.328;2024-03-29T05:53:29;12.07;;;3.33;;
29984;SDS011;17387;42.690;23.328;2024-03-29T05:55:55;12.20;;;4.60;;
29984;SDS011;17387;42.690;23.328;2024-03-29T05:58:20;10.98;;;3.20;;
29984;SDS011;17387;42.690;23.328;2024-03-29T06:00:46;7.90;;;2.78;;
29984;SDS011;17387;42.690;23.328;2024-03-29T06:03:11;6.43;;;2.28;;
29984;SDS011;17387;42.690;23.328;2024-03-29T06:05:36;7.90;;;2.45;;
29984;SDS011;17387;42.690;23.328;2024-03-29T06:08:01;9.77;;;2.75;;
29984;SDS011;17387;42.690;23.328;2024-03-29T06:10:27;12.48;;;2.90;;
29984;SDS011;17387;42.690;23.328;2024-03-29T06:12:52;9.52;;;2.80;;
29984;SDS011;17387;42.690;23.328;2024-03-29T06:15:17;16.20;;;2.70;;
29984;SDS011;17387;42.690;23.328;2024-03-29T06:18:01;12.43;;;2.75;;
29984;SDS011;17387;42.690;23.328;2024-03-29T06:20:26;11.57;;;2.38;;
29984;SDS011;17387;42.690;23.328;2024-03-29T06:22:51;6.30;;;2.20;;
29984;SDS011;17387;42.690;23.328;2024-03-29T06:25:17;7.72;;;2.25;;
29984;SDS011;17387;42.690;23.328;2024-03-29T06:27:42;10.55;;;2.63;;
29984;SDS011;17387;42.690;23.328;2024-03-29T06:30:13;13.43;;;2.40;;
29984;SDS011;17387;42.690;23.328;2024-03-29T06:32:38;7.15;;;2.80;;
29984;SDS011;17387;42.690;23.328;2024-03-29T06:35:04;7.55;;;2.53;;
29984;SDS011;17387;42.690;23.328;2024-03-29T06:37:29;12.38;;;2.55;;
29984;SDS011;17387;42.690;23.328;2024-03-29T06:39:54;7.72;;;2.90;;
29984;SDS011;17387;42.690;23.328;2024-03-29T06:42:20;6.32;;;2.60;;
29984;SDS011;17387;42.690;23.328;2024-03-29T06:44:45;10.23;;;2.28;;
29984;SDS011;17387;42.690;23.328;2024-03-29T06:47:11;11.70;;;1.90;;
29984;SDS011;17387;42.690;23.328;2024-03-29T06:49:36;6.90;;;1.70;;
29984;SDS011;17387;42.690;23.328;2024-03-29T06:52:01;6.30;;;1.40;;
29984;SDS011;17387;42.690;23.328;2024-03-29T06:54:27;9.25;;;1.80;;
29984;SDS011;17387;42.690;23.328;2024-03-29T06:56:53;7.38;;;1.58;;
29984;SDS011;17387;42.690;23.328;2024-03-29T06:59:19;6.72;;;1.45;;
29984;SDS011;17387;42.690;23.328;2024-03-29T07:01:44;9.13;;;1.95;;
29984;SDS011;17387;42.690;23.328;2024-03-29T07:04:09;6.80;;;1.90;;
29984;SDS011;17387;42.690;23.328;2024-03-29T07:06:35;6.50;;;1.17;;
29984;SDS011;17387;42.690;23.328;2024-03-29T07:09:02;3.78;;;1.20;;
29984;SDS011;17387;42.690;23.328;2024-03-29T07:11:28;9.60;;;1.20;;
29984;SDS011;17387;42.690;23.328;2024-03-29T07:13:53;5.53;;;1.25;;
29984;SDS011;17387;42.690;23.328;2024-03-29T07:16:19;8.27;;;1.30;;
29984;SDS011;17387;42.690;23.328;2024-03-29T07:18:44;5.53;;;1.30;;
29984;SDS011;17387;42.690;23.328;2024-03-29T07:21:09;4.22;;;1.10;;
29984;SDS011;17387;42.690;23.328;2024-03-29T07:23:34;3.22;;;1.30;;
29984;SDS011;17387;42.690;23.328;2024-03-29T07:26:03;4.03;;;1.42;;
29984;SDS011;17387;42.690;23.328;2024-03-29T07:28:32;6.93;;;1.30;;
29984;SDS011;17387;42.690;23.328;2024-03-29T07:30:57;4.45;;;1.10;;
29984;SDS011;17387;42.690;23.328;2024-03-29T07:33:23;7.72;;;1.65;;
29984;SDS011;17387;42.690;23.328;2024-03-29T07:35:51;7.57;;;1.73;;
29984;SDS011;17387;42.690;23.328;2024-03-29T07:38:16;4.85;;;1.40;;
29984;SDS011;17387;42.690;23.328;2024-03-29T07:40:42;11.70;;;1.65;;
29984;SDS011;17387;42.690;23.328;2024-03-29T07:43:07;6.05;;;1.17;;
29984;SDS011;17387;42.690;23.328;2024-03-29T07:45:33;2.63;;;0.90;;
29984;SDS011;17387;42.690;23.328;2024-03-29T07:47:58;4.93;;;1.10;;
29984;SDS011;17387;42.690;23.328;2024-03-29T07:50:23;5.07;;;1.20;;
29984;SDS011;17387;42.690;23.328;2024-03-29T07:52:49;8.30;;;2.10;;
29984;SDS011;17387;42.690;23.328;2024-03-29T07:55:15;4.82;;;1.77;;
29984;SDS011;17387;42.690;23.328;2024-03-29T07:57:40;3.93;;;1.40;;
29984;SDS011;17387;42.690;23.328;2024-03-29T08:00:06;8.30;;;3.00;;
29984;SDS011;17387;42.690;23.328;2024-03-29T08:02:32;7.32;;;2.40;;
29984;SDS011;17387;42.690;23.328;2024-03-29T08:04:57;6.72;;;1.75;;
29984;SDS011;17387;42.690;23.328;2024-03-29T08:07:23;5.53;;;1.70;;
29984;SDS011;17387;42.690;23.328;2024-03-29T08:09:49;4.93;;;1.45;;
29984;SDS011;17387;42.690;23.328;2024-03-29T08:12:14;5.00;;;1.17;;
29984;SDS011;17387;42.690;23.328;2024-03-29T08:14:40;7.55;;;1.60;;
29984;SDS011;17387;42.690;23.328;2024-03-29T08:17:05;3.88;;;1.25;;
29984;SDS011;17387;42.690;23.328;2024-03-29T08:19:34;6.25;;;2.03;;
29984;SDS011;17387;42.690;23.328;2024-03-29T08:21:59;4.25;;;1.30;;
29984;SDS011;17387;42.690;23.328;2024-03-29T08:24:30;4.22;;;1.10;;
29984;SDS011;17387;42.690;23.328;2024-03-29T08:26:55;6.80;;;1.48;;
29984;SDS011;17387;42.690;23.328;2024-03-29T08:29:20;5.30;;;1.50;;
29984;SDS011;17387;42.690;23.328;2024-03-29T08:31:45;6.73;;;1.63;;
29984;SDS011;17387;42.690;23.328;2024-03-29T08:34:10;3.03;;;1.20;;
29984;SDS011;17387;42.690;23.328;2024-03-29T08:36:38;5.05;;;0.95;;
29984;SDS011;17387;42.690;23.328;2024-03-29T08:39:14;3.60;;;1.35;;
29984;SDS011;17387;42.690;23.328;2024-03-29T08:41:40;4.28;;;1.52;;
29984;SDS011;17387;42.690;23.328;2024-03-29T08:44:06;5.90;;;1.70;;
29984;SDS011;17387;42.690;23.328;2024-03-29T08:46:32;5.13;;;1.35;;
29984;SDS011;17387;42.690;23.328;2024-03-29T08:48:57;3.47;;;1.37;;
29984;SDS011;17387;42.690;23.328;2024-03-29T08:51:22;3.40;;;1.17;;
29984;SDS011;17387;42.690;23.328;2024-03-29T08:53:47;5.77;;;1.37;;
29984;SDS011;17387;42.690;23.328;2024-03-29T08:56:13;6.50;;;1.53;;
29984;SDS011;17387;42.690;23.328;2024-03-29T08:58:39;5.43;;;1.23;;
29984;SDS011;17387;42.690;23.328;2024-03-29T09:01:04;3.40;;;1.37;;
29984;SDS011;17387;42.690;23.328;2024-03-29T09:03:29;7.13;;;1.60;;
29984;SDS011;17387;42.690;23.328;2024-03-29T09:05:55;3.72;;;1.40;;
29984;SDS011;17387;42.690;23.328;2024-03-29T09:08:20;5.07;;;1.30;;
29984;SDS011;17387;42.690;23.328;2024-03-29T09:10:45;4.50;;;1.50;;
29984;SDS011;17387;42.690;23.328;2024-03-29T09:13:10;4.55;;;1.42;;
29984;SDS011;17387;42.690;23.328;2024-03-29T09:15:36;5.25;;;1.00;;
29984;SDS011;17387;42.690;23.328;2024-03-29T09:18:01;4.10;;;1.30;;
29984;SDS011;17387;42.690;23.328;2024-03-29T09:20:34;2.58;;;1.20;;
29984;SDS011;17387;42.690;23.328;2024-03-29T09:23:00;6.00;;;1.40;;
29984;SDS011;17387;42.690;23.328;2024-03-29T09:25:25;3.00;;;1.10;;
29984;SDS011;17387;42.690;23.328;2024-03-29T09:27:50;3.92;;;1.33;;
29984;SDS011;17387;42.690;23.328;2024-03-29T09:30:15;2.80;;;1.03;;
29984;SDS011;17387;42.690;23.328;2024-03-29T09:32:40;8.13;;;2.10;;
29984;SDS011;17387;42.690;23.328;2024-03-29T09:35:06;4.32;;;1.50;;
29984;SDS011;17387;42.690;23.328;2024-03-29T09:37:31;5.75;;;1.63;;
29984;SDS011;17387;42.690;23.328;2024-03-29T09:40:01;4.57;;;1.50;;
29984;SDS011;17387;42.690;23.328;2024-03-29T09:42:26;7.53;;;1.70;;
29984;SDS011;17387;42.690;23.328;2024-03-29T09:44:55;6.97;;;1.63;;
29984;SDS011;17387;42.690;23.328;2024-03-29T09:47:22;5.50;;;1.35;;
29984;SDS011;17387;42.690;23.328;2024-03-29T09:49:47;3.58;;;1.08;;
29984;SDS011;17387;42.690;23.328;2024-03-29T09:52:15;3.65;;;1.30;;
29984;SDS011;17387;42.690;23.328;2024-03-29T09:54:40;3.80;;;1.20;;
29984;SDS011;17387;42.690;23.328;2024-03-29T09:57:05;4.00;;;1.10;;
29984;SDS011;17387;42.690;23.328;2024-03-29T09:59:31;5.25;;;1.60;;
29984;SDS011;17387;42.690;23.328;2024-03-29T10:01:56;5.03;;;2.03;;
29984;SDS011;17387;42.690;23.328;2024-03-29T10:04:23;5.18;;;1.60;;
29984;SDS011;17387;42.690;23.328;2024-03-29T10:06:49;4.47;;;1.10;;
29984;SDS011;17387;42.690;23.328;2024-03-29T10:09:18;4.65;;;1.73;;
29984;SDS011;17387;42.690;23.328;2024-03-29T10:11:43;3.88;;;1.52;;
29984;SDS011;17387;42.690;23.328;2024-03-29T10:14:09;3.17;;;1.42;;
29984;SDS011;17387;42.690;23.328;2024-03-29T10:16:34;5.30;;;1.65;;
29984;SDS011;17387;42.690;23.328;2024-03-29T10:19:00;5.00;;;1.40;;
29984;SDS011;17387;42.690;23.328;2024-03-29T10:21:25;5.43;;;1.80;;
29984;SDS011;17387;42.690;23.328;2024-03-29T10:23:53;3.80;;;1.75;;
29984;SDS011;17387;42.690;23.328;2024-03-29T10:26:19;7.00;;;1.30;;
29984;SDS011;17387;42.690;23.328;2024-03-29T10:28:46;5.63;;;1.95;;
29984;SDS011;17387;42.690;23.328;2024-03-29T10:31:11;5.05;;;1.70;;
29984;SDS011;17387;42.690;23.328;2024-03-29T10:33:38;2.95;;;1.20;;
29984;SDS011;17387;42.690;23.328;2024-03-29T10:36:04;4.28;;;1.38;;
29984;SDS011;17387;42.690;23.328;2024-03-29T10:38:30;12.95;;;6.85;;
29984;SDS011;17387;42.690;23.328;2024-03-29T10:40:55;5.07;;;1.80;;
29984;SDS011;17387;42.690;23.328;2024-03-29T10:43:21;8.35;;;2.90;;
29984;SDS011;17387;42.690;23.328;2024-03-29T10:45:47;9.13;;;2.92;;
29984;SDS011;17387;42.690;23.328;2024-03-29T10:48:14;3.97;;;1.73;;
29984;SDS011;17387;42.690;23.328;2024-03-29T10:50:40;5.82;;;2.00;;
29984;SDS011;17387;42.690;23.328;2024-03-29T10:53:07;7.55;;;2.70;;
29984;SDS011;17387;42.690;23.328;2024-03-29T10:55:33;4.70;;;2.00;;
29984;SDS011;17387;42.690;23.328;2024-03-29T10:58:00;3.70;;;1.13;;
29984;SDS011;17387;42.690;23.328;2024-03-29T11:00:25;6.20;;;1.70;;
29984;SDS011;17387;42.690;23.328;2024-03-29T11:05:26;7.28;;;2.28;;
29984;SDS011;17387;42.690;23.328;2024-03-29T11:07:54;5.78;;;2.13;;
29984;SDS011;17387;42.690;23.328;2024-03-29T11:10:25;2.97;;;1.48;;
29984;SDS011;17387;42.690;23.328;2024-03-29T11:12:58;4.10;;;1.70;;
29984;SDS011;17387;42.690;23.328;2024-03-29T11:15:33;10.30;;;2.00;;
29984;SDS011;17387;42.690;23.328;2024-03-29T11:18:01;7.30;;;1.48;;
29984;SDS011;17387;42.690;23.328;2024-03-29T11:20:27;3.50;;;1.52;;
29984;SDS011;17387;42.690;23.328;2024-03-29T11:23:05;4.50;;;1.63;;
29984;SDS011;17387;42.690;23.328;2024-03-29T11:25:50;8.23;;;1.83;;
29984;SDS011;17387;42.690;23.328;2024-03-29T11:28:22;6.03;;;1.42;;
29984;SDS011;17387;42.690;23.328;2024-03-29T11:30:49;5.35;;;1.30;;
29984;SDS011;17387;42.690;23.328;2024-03-29T11:33:31;5.70;;;1.92;;
29984;SDS011;17387;42.690;23.328;2024-03-29T11:35:57;5.93;;;1.58;;
29984;SDS011;17387;42.690;23.328;2024-03-29T11:38:33;4.53;;;1.58;;
29984;SDS011;17387;42.690;23.328;2024-03-29T11:41:05;5.40;;;1.33;;
29984;SDS011;17387;42.690;23.328;2024-03-29T11:43:31;6.93;;;2.17;;
29984;SDS011;17387;42.690;23.328;2024-03-29T11:45:58;3.90;;;1.10;;
29984;SDS011;17387;42.690;23.328;2024-03-29T11:48:23;5.10;;;1.60;;
29984;SDS011;17387;42.690;23.328;2024-03-29T11:50:52;5.15;;;1.45;;
29984;SDS011;17387;42.690;23.328;2024-03-29T11:53:17;5.35;;;1.98;;
29984;SDS011;17387;42.690;23.328;2024-03-29T11:55:43;4.90;;;1.55;;
29984;SDS011;17387;42.690;23.328;2024-03-29T11:58:08;5.00;;;1.80;;
29984;SDS011;17387;42.690;23.328;2024-03-29T12:00:34;2.15;;;1.30;;
29984;SDS011;17387;42.690;23.328;2024-03-29T12:02:59;5.05;;;1.30;;
29984;SDS011;17387;42.690;23.328;2024-03-29T12:05:27;8.38;;;1.92;;
29984;SDS011;17387;42.690;23.328;2024-03-29T12:07:52;8.30;;;1.60;;
29984;SDS011;17387;42.690;23.328;2024-03-29T12:10:18;6.03;;;1.35;;
29984;SDS011;17387;42.690;23.328;2024-03-29T12:12:44;6.20;;;1.85;;
29984;SDS011;17387;42.690;23.328;2024-03-29T12:15:09;6.93;;;1.73;;
29984;SDS011;17387;42.690;23.328;2024-03-29T12:17:34;4.90;;;1.63;;
29984;SDS011;17387;42.690;23.328;2024-03-29T12:20:03;4.53;;;1.60;;
29984;SDS011;17387;42.690;23.328;2024-03-29T12:22:36;6.30;;;2.05;;
29984;SDS011;17387;42.690;23.328;2024-03-29T12:25:02;9.57;;;3.20;;
29984;SDS011;17387;42.690;23.328;2024-03-29T12:27:28;8.82;;;1.88;;
29984;SDS011;17387;42.690;23.328;2024-03-29T12:29:57;7.60;;;4.05;;
29984;SDS011;17387;42.690;23.328;2024-03-29T12:32:23;8.10;;;1.70;;
29984;SDS011;17387;42.690;23.328;2024-03-29T12:34:51;4.78;;;1.20;;
29984;SDS011;17387;42.690;23.328;2024-03-29T12:37:16;5.47;;;1.60;;
29984;SDS011;17387;42.690;23.328;2024-03-29T12:39:41;9.57;;;1.57;;
29984;SDS011;17387;42.690;23.328;2024-03-29T12:42:07;5.20;;;1.60;;
29984;SDS011;17387;42.690;23.328;2024-03-29T12:44:32;5.72;;;1.55;;
29984;SDS011;17387;42.690;23.328;2024-03-29T12:46:59;2.63;;;1.17;;
29984;SDS011;17387;42.690;23.328;2024-03-29T12:49:24;5.57;;;1.80;;
29984;SDS011;17387;42.690;23.328;2024-03-29T12:51:49;4.13;;;1.45;;
29984;SDS011;17387;42.690;23.328;2024-03-29T12:54:15;2.97;;;1.90;;
29984;SDS011;17387;42.690;23.328;2024-03-29T12:56:40;6.18;;;1.40;;
29984;SDS011;17387;42.690;23.328;2024-03-29T12:59:07;4.90;;;1.95;;
29984;SDS011;17387;42.690;23.328;2024-03-29T13:01:32;4.35;;;1.30;;
29984;SDS011;17387;42.690;23.328;2024-03-29T13:03:58;2.78;;;1.23;;
29984;SDS011;17387;42.690;23.328;2024-03-29T13:06:23;6.55;;;1.70;;
29984;SDS011;17387;42.690;23.328;2024-03-29T13:08:48;5.47;;;1.23;;
29984;SDS011;17387;42.690;23.328;2024-03-29T13:11:15;3.25;;;1.27;;
29984;SDS011;17387;42.690;23.328;2024-03-29T13:13:40;7.63;;;2.95;;
29984;SDS011;17387;42.690;23.328;2024-03-29T13:16:05;4.35;;;1.33;;
29984;SDS011;17387;42.690;23.328;2024-03-29T13:18:31;4.18;;;1.50;;
29984;SDS011;17387;42.690;23.328;2024-03-29T13:20:56;3.23;;;1.57;;
29984;SDS011;17387;42.690;23.328;2024-03-29T13:23:24;8.43;;;1.80;;
29984;SDS011;17387;42.690;23.328;2024-03-29T13:25:50;4.82;;;1.50;;
29984;SDS011;17387;42.690;23.328;2024-03-29T13:28:18;5.43;;;1.80;;
29984;SDS011;17387;42.690;23.328;2024-03-29T13:30:43;6.32;;;1.95;;
29984;SDS011;17387;42.690;23.328;2024-03-29T13:33:10;4.15;;;1.20;;
29984;SDS011;17387;42.690;23.328;2024-03-29T13:35:36;2.72;;;1.23;;
29984;SDS011;17387;42.690;23.328;2024-03-29T13:38:02;3.50;;;1.30;;
29984;SDS011;17387;42.690;23.328;2024-03-29T13:40:27;7.63;;;1.70;;
29984;SDS011;17387;42.690;23.328;2024-03-29T13:42:52;3.43;;;1.20;;
29984;SDS011;17387;42.690;23.328;2024-03-29T13:45:18;5.88;;;1.20;;
29984;SDS011;17387;42.690;23.328;2024-03-29T13:47:44;6.70;;;1.38;;
29984;SDS011;17387;42.690;23.328;2024-03-29T13:50:10;4.40;;;1.15;;
29984;SDS011;17387;42.690;23.328;2024-03-29T13:52:35;3.10;;;1.13;;
29984;SDS011;17387;42.690;23.328;2024-03-29T13:55:01;9.07;;;2.22;;
29984;SDS011;17387;42.690;23.328;2024-03-29T13:57:28;4.78;;;1.30;;
29984;SDS011;17387;42.690;23.328;2024-03-29T13:59:53;5.85;;;1.23;;
29984;SDS011;17387;42.690;23.328;2024-03-29T14:02:19;2.27;;;1.10;;
29984;SDS011;17387;42.690;23.328;2024-03-29T14:04:45;2.33;;;1.40;;
29984;SDS011;17387;42.690;23.328;2024-03-29T14:07:11;5.55;;;1.60;;
29984;SDS011;17387;42.690;23.328;2024-03-29T14:09:37;3.15;;;1.45;;
29984;SDS011;17387;42.690;23.328;2024-03-29T14:12:02;6.22;;;2.22;;
29984;SDS011;17387;42.690;23.328;2024-03-29T14:14:28;3.95;;;1.60;;
29984;SDS011;17387;42.690;23.328;2024-03-29T14:16:54;5.93;;;1.80;;
29984;SDS011;17387;42.690;23.328;2024-03-29T14:19:19;7.37;;;2.50;;
29984;SDS011;17387;42.690;23.328;2024-03-29T14:21:44;1.85;;;0.95;;
29984;SDS011;17387;42.690;23.328;2024-03-29T14:24:10;9.23;;;5.10;;
29984;SDS011;17387;42.690;23.328;2024-03-29T14:26:35;5.97;;;4.40;;
29984;SDS011;17387;42.690;23.328;2024-03-29T14:29:01;3.50;;;2.37;;